Time;durP1;ratioP1;P1;durP2;ratioP2;P2;SDS_P1;SDS_P2;PMS_P1;PMS_P2;Temp;Humidity;BMP_temperature;BMP_pressure;BME280_temperature;BME280_humidity;BME280_pressure;Samples;Min_cycle;Max_cycle;Signal;HPM_P1;HPM_P2
2021/08/13 00:00:32;;;;;;;20.60;11.55;;;;;;;16.10;95.59;102098.00;4983478;28;20066;-78
2021/08/13 00:02:59;;;;;;;22.15;10.95;;;;;;;16.06;95.15;102099.94;4981597;28;20098;-78
2021/08/13 00:05:27;;;;;;;20.77;10.70;;;;;;;16.01;95.50;102092.00;4984795;28;20062;-77
2021/08/13 00:07:55;;;;;;;18.15;10.35;;;;;;;15.96;96.37;102095.81;4984612;28;20067;-72
2021/08/13 00:10:23;;;;;;;22.75;11.52;;;;;;;15.92;95.88;102105.81;4980387;28;20050;-72
2021/08/13 00:12:51;;;;;;;17.92;9.68;;;;;;;15.98;96.63;102108.25;4980070;28;20069;-72
2021/08/13 00:15:19;;;;;;;20.55;10.68;;;;;;;15.97;96.37;102116.38;4982569;28;20149;-72
2021/08/13 00:17:48;;;;;;;20.67;9.77;;;;;;;15.98;96.53;102110.97;4982887;28;20117;-72
2021/08/13 00:20:16;;;;;;;20.55;9.48;;;;;;;15.99;96.21;102119.94;4980609;28;20050;-72
2021/08/13 00:22:44;;;;;;;21.52;10.20;;;;;;;15.95;96.30;102118.25;4981054;28;22577;-72
2021/08/13 00:25:11;;;;;;;21.10;10.63;;;;;;;15.93;96.70;102118.31;4983780;28;20095;-78
2021/08/13 00:27:39;;;;;;;19.08;9.63;;;;;;;15.92;96.37;102116.56;4981265;28;20092;-72
2021/08/13 00:30:08;;;;;;;20.40;10.32;;;;;;;15.90;95.36;102128.31;4981300;28;20104;-72
2021/08/13 00:32:36;;;;;;;21.42;10.60;;;;;;;15.82;97.28;102134.84;4980100;28;20097;-72
2021/08/13 00:35:06;;;;;;;22.15;11.13;;;;;;;15.80;97.83;102141.19;4981332;28;20062;-72
2021/08/13 00:37:33;;;;;;;22.27;11.13;;;;;;;15.81;97.75;102140.25;4984288;28;20160;-72
2021/08/13 00:40:01;;;;;;;21.77;10.68;;;;;;;15.76;96.19;102142.22;4981205;28;20077;-72
2021/08/13 00:42:29;;;;;;;23.55;11.30;;;;;;;15.77;97.74;102136.78;4981702;28;20466;-72
2021/08/13 00:44:57;;;;;;;22.02;10.48;;;;;;;15.81;97.91;102132.19;4981901;28;20127;-72
2021/08/13 00:47:25;;;;;;;20.00;10.52;;;;;;;15.84;98.00;102132.97;4982447;28;20102;-72
2021/08/13 00:49:54;;;;;;;22.80;12.07;;;;;;;15.77;97.12;102126.03;4978611;28;20093;-72
2021/08/13 00:52:23;;;;;;;24.25;10.82;;;;;;;15.80;97.11;102119.66;4982507;28;20307;-72
2021/08/13 00:54:51;;;;;;;18.20;9.95;;;;;;;15.80;96.75;102114.28;4981453;28;20109;-72
2021/08/13 00:57:19;;;;;;;18.75;9.98;;;;;;;15.78;96.21;102127.81;4979811;28;20108;-72
2021/08/13 00:59:48;;;;;;;17.85;9.70;;;;;;;15.76;96.30;102139.53;4978622;28;20066;-72
2021/08/13 01:02:16;;;;;;;20.63;9.10;;;;;;;15.72;95.24;102127.09;4981243;28;20172;-72
2021/08/13 01:04:44;;;;;;;15.38;8.68;;;;;;;15.69;95.39;102138.81;4981540;28;20414;-73
2021/08/13 01:07:12;;;;;;;17.73;9.00;;;;;;;15.71;96.39;102136.09;4982161;28;20501;-72
2021/08/13 01:09:41;;;;;;;20.17;9.18;;;;;;;15.71;96.79;102130.72;4981471;28;20438;-72
2021/08/13 01:12:21;;;;;;;18.08;9.35;;;;;;;15.67;96.22;102133.50;4981496;28;20325;-78
2021/08/13 01:15:01;;;;;;;19.33;10.07;;;;;;;15.65;96.73;102140.75;4981257;28;20393;-78
2021/08/13 01:17:34;;;;;;;16.67;8.70;;;;;;;15.62;97.01;102135.44;4979020;28;20077;-78
2021/08/13 01:20:10;;;;;;;19.52;9.65;;;;;;;15.55;96.69;102141.97;4981483;28;20050;-78
2021/08/13 01:22:46;;;;;;;17.38;8.57;;;;;;;15.50;96.43;102135.84;4980908;28;20066;-78
2021/08/13 01:25:19;;;;;;;17.52;8.90;;;;;;;15.47;97.21;102142.19;4983910;28;20066;-78
2021/08/13 01:27:50;;;;;;;16.27;9.05;;;;;;;15.45;96.07;102145.88;4981905;28;20501;-78
2021/08/13 01:30:20;;;;;;;16.33;7.88;;;;;;;15.43;96.45;102140.56;4981565;28;20077;-78
2021/08/13 01:32:53;;;;;;;13.73;7.70;;;;;;;15.46;96.35;102144.94;4980734;28;20583;-77
2021/08/13 01:35:23;;;;;;;;;;;;;;;15.45;96.14;102140.50;4977752;28;20460;-78
2021/08/13 01:37:53;;;;;;;10.77;6.05;;;;;;;15.46;96.39;102139.56;4982008;28;19929;-72
2021/08/13 01:40:23;;;;;;;15.02;7.22;;;;;;;15.44;96.50;102133.34;4980882;28;20445;-72
2021/08/13 01:42:52;;;;;;;14.43;6.35;;;;;;;15.45;96.40;102145.88;4979758;28;20326;-72
2021/08/13 01:45:23;;;;;;;15.13;6.43;;;;;;;15.40;95.05;102143.34;4980707;28;20128;-72
2021/08/13 01:47:54;;;;;;;12.20;6.40;;;;;;;15.38;96.08;102147.88;4978637;28;20066;-72
2021/08/13 01:50:22;;;;;;;12.77;6.80;;;;;;;15.37;95.94;102145.25;4979087;28;20234;-72
2021/08/13 01:52:52;;;;;;;12.35;5.72;;;;;;;15.36;95.89;102139.00;4979663;28;20093;-72
2021/08/13 01:55:21;;;;;;;11.50;6.30;;;;;;;15.41;96.47;102138.81;4981467;28;20070;-72
2021/08/13 01:57:49;;;;;;;12.55;6.30;;;;;;;15.38;96.64;102142.50;4979273;28;20317;-72
2021/08/13 02:00:20;;;;;;;13.80;6.57;;;;;;;15.36;96.36;102144.38;4981752;28;20117;-72
2021/08/13 02:02:49;;;;;;;12.50;7.03;;;;;;;15.34;96.66;102146.22;4980983;28;20077;-72
2021/08/13 02:05:22;;;;;;;12.57;5.82;;;;;;;15.32;97.22;102158.81;4979949;28;20109;-72
2021/08/13 02:07:51;;;;;;;13.38;6.45;;;;;;;15.32;97.37;102150.75;4978936;28;20210;-72
2021/08/13 02:10:20;;;;;;;10.65;5.93;;;;;;;15.31;97.16;102152.56;4979143;28;20042;-72
2021/08/13 02:12:48;;;;;;;13.07;6.22;;;;;;;15.28;97.32;102139.22;4982244;28;20098;-72
2021/08/13 02:15:16;;;;;;;12.13;6.35;;;;;;;15.31;97.24;102138.25;4978180;28;20070;-72
2021/08/13 02:17:53;;;;;;;14.55;6.45;;;;;;;15.38;97.85;102128.19;4979681;28;20461;-72
2021/08/13 02:20:23;;;;;;;15.30;6.22;;;;;;;15.32;97.60;102138.22;4980259;28;20172;-72
2021/08/13 02:22:50;;;;;;;14.23;6.40;;;;;;;15.29;97.44;102137.44;4979422;28;20065;-72
2021/08/13 02:25:19;;;;;;;14.38;6.28;;;;;;;15.28;97.68;102146.41;4981004;28;20333;-72
2021/08/13 02:27:47;;;;;;;13.15;5.55;;;;;;;15.24;97.77;102137.56;4979789;28;20070;-72
2021/08/13 02:30:15;;;;;;;12.45;5.25;;;;;;;15.24;98.04;102144.75;4977972;28;20570;-72
2021/08/13 02:32:45;;;;;;;13.63;6.20;;;;;;;15.19;97.41;102139.50;4979635;28;20066;-72
2021/08/13 02:35:13;;;;;;;12.05;6.05;;;;;;;15.18;97.60;102134.19;4979500;28;20140;-72
2021/08/13 02:37:48;;;;;;;13.60;6.20;;;;;;;15.17;98.11;102146.75;4980352;28;20090;-72
2021/08/13 02:40:20;;;;;;;11.52;5.93;;;;;;;15.12;98.36;102141.50;4978637;28;20096;-72
2021/08/13 02:42:51;;;;;;;14.10;6.30;;;;;;;15.05;97.66;102150.69;4979581;28;20105;-72
2021/08/13 02:45:23;;;;;;;13.18;6.30;;;;;;;15.01;98.37;102142.75;4975248;28;20116;-72
2021/08/13 02:47:55;;;;;;;11.23;5.40;;;;;;;14.99;98.20;102144.63;4978990;28;20074;-72
2021/08/13 02:50:24;;;;;;;11.48;5.03;;;;;;;14.97;99.16;102141.97;4982312;28;20590;-72
2021/08/13 02:52:56;;;;;;;12.40;5.50;;;;;;;14.94;98.07;102145.63;4979236;28;20112;-72
2021/08/13 02:55:32;;;;;;;10.82;5.88;;;;;;;14.89;98.87;102139.50;4982001;28;20120;-78
2021/08/13 02:58:02;;;;;;;10.77;5.93;;;;;;;14.85;98.62;102137.84;4978551;28;20382;-78
2021/08/13 03:00:31;;;;;;;11.18;5.75;;;;;;;14.85;99.22;102136.97;4977504;28;20059;-78
2021/08/13 03:03:00;;;;;;;12.63;6.07;;;;;;;14.82;98.47;102134.38;4978018;28;20098;-78
2021/08/13 03:05:29;;;;;;;11.73;5.53;;;;;;;14.80;98.53;102136.22;4978991;28;20109;-77
2021/08/13 03:07:59;;;;;;;12.50;5.57;;;;;;;14.81;99.11;102143.34;4982006;28;20066;-77
2021/08/13 03:10:26;;;;;;;12.95;6.32;;;;;;;14.79;99.52;102148.75;4979178;28;20133;-77
2021/08/13 03:12:55;;;;;;;12.32;5.43;;;;;;;14.81;99.13;102146.91;4980362;28;20050;-77
2021/08/13 03:15:23;;;;;;;13.65;6.75;;;;;;;14.83;100.00;102150.44;4978575;28;20096;-77
2021/08/13 03:17:50;;;;;;;14.48;6.32;;;;;;;14.85;100.00;102145.03;4978965;28;20089;-78
2021/08/13 03:20:20;;;;;;;13.95;6.85;;;;;;;14.84;99.86;102145.94;4981853;28;20418;-78
2021/08/13 03:22:48;;;;;;;14.77;6.13;;;;;;;14.82;99.53;102142.44;4979948;28;20141;-78
2021/08/13 03:25:18;;;;;;;12.65;6.70;;;;;;;14.83;100.00;102141.47;4976935;28;20066;-78
2021/08/13 03:27:46;;;;;;;14.75;6.78;;;;;;;14.81;100.00;102144.22;4979215;28;20066;-77
2021/08/13 03:30:14;;;;;;;14.25;6.45;;;;;;;14.80;99.75;102141.59;4980678;28;20051;-78
2021/08/13 03:32:43;;;;;;;14.60;6.82;;;;;;;14.79;100.00;102140.69;4978676;28;20367;-78
2021/08/13 03:35:10;;;;;;;12.20;5.95;;;;;;;14.79;100.00;102139.81;4979149;28;20452;-77
2021/08/13 03:37:38;;;;;;;14.85;7.05;;;;;;;14.85;100.00;102131.59;4980325;28;20062;-77
2021/08/13 03:40:09;;;;;;;16.02;7.22;;;;;;;14.83;100.00;102128.03;4978236;28;20070;-77
2021/08/13 03:42:39;;;;;;;13.60;6.85;;;;;;;14.82;100.00;102129.88;4978565;28;20069;-77
2021/08/13 03:45:07;;;;;;;14.48;6.90;;;;;;;14.83;100.00;102120.88;4980400;28;20101;-76
2021/08/13 03:47:35;;;;;;;14.65;7.45;;;;;;;14.92;100.00;102115.22;4979154;28;20062;-77
2021/08/13 03:50:04;;;;;;;17.13;7.57;;;;;;;14.88;100.00;102116.25;4974468;28;20837;-77
2021/08/13 03:52:31;;;;;;;14.40;7.00;;;;;;;14.83;100.00;102119.97;4978732;28;20495;-72
2021/08/13 03:54:59;;;;;;;17.80;7.60;;;;;;;14.79;100.00;102118.31;4979476;28;20050;-72
2021/08/13 03:57:27;;;;;;;16.02;8.07;;;;;;;14.75;100.00;102113.03;4979064;28;20389;-72
2021/08/13 03:59:56;;;;;;;14.80;7.50;;;;;;;14.73;100.00;102120.28;4977981;28;20171;-72
2021/08/13 04:02:24;;;;;;;16.83;7.82;;;;;;;14.71;100.00;102122.13;4980021;28;20129;-71
2021/08/13 04:04:52;;;;;;;13.73;7.07;;;;;;;14.73;100.00;102124.78;4978979;28;20109;-72
2021/08/13 04:07:20;;;;;;;18.13;8.45;;;;;;;14.68;100.00;102126.72;4979108;28;20426;-72
2021/08/13 04:09:47;;;;;;;19.85;9.25;;;;;;;14.66;100.00;102131.22;4981042;28;20133;-72
2021/08/13 04:12:15;;;;;;;17.23;7.82;;;;;;;14.64;100.00;102138.44;4983605;28;20121;-72
2021/08/13 04:14:43;;;;;;;17.55;7.70;;;;;;;14.63;100.00;102140.25;4981778;28;20117;-72
2021/08/13 04:17:12;;;;;;;18.63;8.38;;;;;;;14.65;100.00;102142.91;4981727;28;20073;-71
2021/08/13 04:19:41;;;;;;;15.05;7.80;;;;;;;14.61;100.00;102141.22;4983911;28;20107;-72
2021/08/13 04:22:09;;;;;;;18.60;8.35;;;;;;;14.66;100.00;102145.56;4980993;28;20050;-72
2021/08/13 04:24:38;;;;;;;17.77;7.50;;;;;;;14.69;100.00;102142.78;4982801;28;20129;-72
2021/08/13 04:27:06;;;;;;;18.45;9.60;;;;;;;14.72;100.00;102144.50;4979751;28;20062;-72
2021/08/13 04:29:33;;;;;;;18.58;8.30;;;;;;;14.82;100.00;102151.34;4983308;28;20096;-72
2021/08/13 04:32:01;;;;;;;18.17;8.13;;;;;;;14.83;100.00;102149.53;4981992;28;20067;-72
2021/08/13 04:34:30;;;;;;;17.42;8.48;;;;;;;14.90;100.00;102146.66;4981130;28;20066;-72
2021/08/13 04:36:58;;;;;;;19.13;9.10;;;;;;;14.96;100.00;102144.69;4983813;28;20062;-72
2021/08/13 04:39:25;;;;;;;22.48;9.85;;;;;;;14.97;100.00;102143.78;4980884;28;20066;-72
2021/08/13 04:41:53;;;;;;;17.23;8.80;;;;;;;15.00;100.00;102144.56;4981888;28;20058;-72
2021/08/13 04:44:21;;;;;;;25.17;9.68;;;;;;;15.04;100.00;102137.28;4981908;28;20077;-72
2021/08/13 04:46:48;;;;;;;18.23;8.88;;;;;;;15.05;100.00;102130.97;4982520;28;20073;-72
2021/08/13 04:49:17;;;;;;;17.08;8.98;;;;;;;15.08;100.00;102134.44;4984120;28;20153;-72
2021/08/13 04:51:46;;;;;;;18.95;9.40;;;;;;;15.15;100.00;102135.13;4980928;28;20073;-72
2021/08/13 04:54:13;;;;;;;19.88;9.13;;;;;;;15.24;100.00;102134.00;4979196;28;20097;-72
2021/08/13 04:56:41;;;;;;;16.88;8.73;;;;;;;15.35;100.00;102133.66;4982724;28;20235;-72
2021/08/13 04:59:09;;;;;;;21.35;8.93;;;;;;;15.45;100.00;102136.00;4980765;28;20151;-71
2021/08/13 05:01:37;;;;;;;19.35;9.00;;;;;;;15.52;100.00;102135.81;4980507;28;20116;-71
2021/08/13 05:04:06;;;;;;;20.20;9.00;;;;;;;15.59;100.00;102130.16;4979929;28;20097;-71
2021/08/13 05:06:35;;;;;;;23.73;10.20;;;;;;;15.66;100.00;102134.44;4981431;28;20066;-71
2021/08/13 05:09:04;;;;;;;20.65;8.68;;;;;;;15.72;100.00;102129.78;4980817;28;20609;-71
2021/08/13 05:11:31;;;;;;;22.27;9.27;;;;;;;15.80;100.00;102136.69;4982528;28;20488;-71
2021/08/13 05:13:59;;;;;;;22.52;9.60;;;;;;;15.91;100.00;102130.94;4980523;28;20065;-71
2021/08/13 05:16:27;;;;;;;21.00;8.45;;;;;;;15.99;100.00;102136.94;4980440;28;20153;-77
2021/08/13 05:18:55;;;;;;;19.52;8.27;;;;;;;16.08;100.00;102138.44;4983500;28;20080;-77
2021/08/13 05:21:23;;;;;;;22.95;9.57;;;;;;;16.16;100.00;102138.19;4979585;28;20044;-76
2021/08/13 05:23:51;;;;;;;19.77;9.60;;;;;;;16.19;100.00;102133.56;4980696;28;20393;-77
2021/08/13 05:26:20;;;;;;;18.10;7.93;;;;;;;16.27;100.00;102129.72;4979609;28;20066;-78
2021/08/13 05:28:48;;;;;;;19.77;9.50;;;;;;;16.29;100.00;102139.50;4981927;28;20125;-77
2021/08/13 05:31:16;;;;;;;18.73;8.82;;;;;;;16.33;100.00;102142.94;4981939;28;20903;-78
2021/08/13 05:33:44;;;;;;;18.38;9.02;;;;;;;16.40;100.00;102152.59;4980879;28;20096;-78
2021/08/13 05:36:15;;;;;;;19.98;9.10;;;;;;;16.41;100.00;102149.84;4979769;28;20735;-77
2021/08/13 05:38:43;;;;;;;19.45;9.02;;;;;;;16.47;100.00;102145.19;4979553;28;20366;-78
2021/08/13 05:41:11;;;;;;;24.20;9.20;;;;;;;16.47;99.91;102147.88;4982973;28;20062;-78
2021/08/13 05:43:40;;;;;;;16.85;9.02;;;;;;;16.49;100.00;102144.19;4980825;28;20076;-78
2021/08/13 05:46:07;;;;;;;22.58;9.75;;;;;;;16.51;99.85;102147.69;4983099;28;20073;-78
2021/08/13 05:48:35;;;;;;;21.95;8.85;;;;;;;16.57;99.83;102146.59;4979333;28;20074;-78
2021/08/13 05:51:03;;;;;;;21.05;9.13;;;;;;;16.57;99.84;102155.56;4980657;28;20570;-77
2021/08/13 05:53:31;;;;;;;18.60;9.20;;;;;;;16.61;99.78;102150.94;4981112;28;20070;-78
2021/08/13 05:55:59;;;;;;;17.30;8.25;;;;;;;16.68;99.53;102152.47;4979803;28;20398;-78
2021/08/13 05:58:26;;;;;;;18.48;8.63;;;;;;;16.76;99.21;102158.44;4981624;28;20097;-77
2021/08/13 06:00:55;;;;;;;21.13;8.50;;;;;;;16.79;99.16;102166.44;4982318;28;20085;-77
2021/08/13 06:03:23;;;;;;;16.92;8.30;;;;;;;16.87;98.89;102174.25;4978394;28;20145;-78
2021/08/13 06:05:51;;;;;;;21.58;9.23;;;;;;;16.85;98.56;102164.47;4980774;28;20066;-78
2021/08/13 06:08:19;;;;;;;18.05;7.72;;;;;;;16.91;98.60;102172.34;4981806;28;20231;-78
2021/08/13 06:10:47;;;;;;;19.35;7.90;;;;;;;16.95;98.30;102169.44;4980675;28;20062;-77
2021/08/13 06:13:15;;;;;;;18.17;8.30;;;;;;;16.97;98.72;102166.69;4979419;28;20265;-77
2021/08/13 06:15:43;;;;;;;20.02;8.30;;;;;;;17.02;98.77;102167.41;4978919;28;20699;-77
2021/08/13 06:18:12;;;;;;;17.73;7.93;;;;;;;17.09;98.44;102174.31;4978985;28;20070;-77
2021/08/13 06:20:40;;;;;;;19.10;8.45;;;;;;;17.15;98.00;102173.22;4980820;28;20046;-77
2021/08/13 06:23:08;;;;;;;17.90;7.55;;;;;;;17.22;97.57;102177.44;4979445;28;20050;-77
2021/08/13 06:25:36;;;;;;;16.73;7.03;;;;;;;17.25;97.96;102182.72;4981283;28;20136;-77
2021/08/13 06:28:04;;;;;;;19.60;7.97;;;;;;;17.32;97.39;102186.91;4978455;28;20066;-77
2021/08/13 06:30:32;;;;;;;18.70;7.32;;;;;;;17.47;97.11;102192.63;4978014;28;20062;-78
2021/08/13 06:33:00;;;;;;;14.40;8.05;;;;;;;17.62;95.80;102185.75;4979427;28;20364;-77
2021/08/13 06:35:29;;;;;;;16.13;7.50;;;;;;;17.71;95.75;102193.50;4977883;28;20066;-78
2021/08/13 06:37:58;;;;;;;16.20;7.43;;;;;;;17.89;95.80;102198.19;4979566;28;20373;-77
2021/08/13 06:40:26;;;;;;;15.48;7.45;;;;;;;18.10;94.56;102193.69;4981698;28;20046;-77
2021/08/13 06:42:54;;;;;;;12.45;6.75;;;;;;;18.19;93.76;102186.16;4980209;28;20062;-77
2021/08/13 06:45:24;;;;;;;15.13;7.45;;;;;;;18.22;93.67;102200.41;4980499;28;20092;-77
2021/08/13 06:47:52;;;;;;;18.13;7.43;;;;;;;18.23;92.85;102196.72;4979142;28;20099;-77
2021/08/13 06:50:20;;;;;;;15.25;7.03;;;;;;;18.15;92.91;102198.00;4979365;28;20090;-78
2021/08/13 06:52:50;;;;;;;16.25;7.60;;;;;;;17.93;92.00;102209.72;4978265;28;20062;-77
2021/08/13 06:55:18;;;;;;;14.25;6.78;;;;;;;17.85;92.10;102201.91;4977869;28;20149;-77
2021/08/13 06:57:46;;;;;;;15.55;6.75;;;;;;;17.90;89.77;102210.72;4977148;28;20129;-77
2021/08/13 07:00:15;;;;;;;13.55;5.90;;;;;;;18.07;87.93;102212.72;4980240;28;20097;-77
2021/08/13 07:02:46;;;;;;;11.60;6.28;;;;;;;18.42;87.08;102207.66;4979720;28;20069;-77
2021/08/13 07:05:16;;;;;;;13.18;6.00;;;;;;;18.73;84.99;102208.09;4978380;28;20050;-77
2021/08/13 07:07:44;;;;;;;9.07;5.25;;;;;;;18.85;82.54;102205.75;4980181;28;20054;-73
2021/08/13 07:10:14;;;;;;;11.23;6.22;;;;;;;18.84;82.18;102211.25;4978586;28;20132;-72
2021/08/13 07:12:42;;;;;;;10.85;5.53;;;;;;;18.92;80.75;102205.50;4980042;28;20066;-72
2021/08/13 07:15:11;;;;;;;11.43;4.75;;;;;;;19.25;79.74;102207.56;4979081;28;20153;-72
2021/08/13 07:17:39;;;;;;;11.60;5.50;;;;;;;19.63;78.11;102197.63;4980272;28;20487;-72
2021/08/13 07:20:08;;;;;;;13.10;6.32;;;;;;;19.64;78.26;102206.63;4981903;28;20492;-72
2021/08/13 07:22:37;;;;;;;13.88;5.95;;;;;;;19.59;76.78;102223.06;4978584;28;20132;-71
2021/08/13 07:25:05;;;;;;;12.68;5.40;;;;;;;19.71;76.66;102208.06;4980354;28;20085;-72
2021/08/13 07:27:34;;;;;;;12.40;5.82;;;;;;;20.01;75.56;102194.00;4976662;28;20122;-72
2021/08/13 07:30:04;;;;;;;11.45;5.93;;;;;;;19.90;75.12;102205.34;4978529;28;20063;-72
2021/08/13 07:32:32;;;;;;;10.65;4.88;;;;;;;20.06;74.38;102222.59;4981289;28;20054;-73
2021/08/13 07:34:59;;;;;;;13.07;5.38;;;;;;;19.86;75.10;102237.13;4977522;28;20122;-73
2021/08/13 07:37:27;;;;;;;12.50;4.97;;;;;;;19.79;76.25;102249.22;4977315;28;20089;-73
2021/08/13 07:39:55;;;;;;;10.18;4.60;;;;;;;19.78;75.18;102250.16;4977471;28;20073;-72
2021/08/13 07:42:26;;;;;;;10.68;4.55;;;;;;;20.02;75.44;102242.66;4980367;28;20242;-72
2021/08/13 07:44:55;;;;;;;9.23;5.18;;;;;;;20.22;74.46;102243.50;4979714;28;20449;-72
2021/08/13 07:47:24;;;;;;;15.25;5.63;;;;;;;20.23;73.40;102240.72;4981985;28;20066;-73
2021/08/13 07:49:51;;;;;;;11.60;4.78;;;;;;;20.40;72.74;102230.84;4982075;28;20213;-72
2021/08/13 07:52:19;;;;;;;13.13;5.35;;;;;;;20.36;72.51;102219.28;4981982;28;20076;-72
2021/08/13 07:54:47;;;;;;;7.93;3.88;;;;;;;20.77;71.11;102216.28;4980938;28;20075;-72
2021/08/13 07:57:16;;;;;;;10.43;4.63;;;;;;;20.71;70.22;102228.31;4981936;28;20108;-73
2021/08/13 07:59:43;;;;;;;9.27;4.15;;;;;;;20.62;70.35;102244.16;4983031;28;20120;-73
2021/08/13 08:02:12;;;;;;;10.35;4.65;;;;;;;21.00;69.27;102253.00;4983441;28;20113;-72
2021/08/13 08:04:40;;;;;;;12.18;4.32;;;;;;;20.65;69.11;102247.63;4981210;28;20066;-73
2021/08/13 08:07:09;;;;;;;8.30;4.07;;;;;;;20.56;69.65;102241.78;4982474;28;20264;-78
2021/08/13 08:09:36;;;;;;;9.70;4.30;;;;;;;20.80;68.88;102226.06;4979855;28;20365;-79
2021/08/13 08:12:04;;;;;;;8.90;4.10;;;;;;;21.02;68.81;102234.81;4981341;28;20156;-79
2021/08/13 08:14:32;;;;;;;8.52;4.20;;;;;;;21.49;66.40;102248.59;4982174;28;20109;-77
2021/08/13 08:17:00;;;;;;;9.07;4.43;;;;;;;21.43;66.73;102247.94;4982100;28;20072;-76
2021/08/13 08:19:29;;;;;;;8.38;4.00;;;;;;;21.65;66.80;102235.91;4981885;28;20117;-77
2021/08/13 08:21:57;;;;;;;10.40;4.35;;;;;;;22.12;65.51;102243.16;4979694;28;20120;-77
2021/08/13 08:24:24;;;;;;;9.73;4.50;;;;;;;21.34;66.37;102259.31;4981092;28;20460;-77
2021/08/13 08:26:52;;;;;;;10.38;4.72;;;;;;;21.14;67.39;102260.41;4980273;28;20190;-78
2021/08/13 08:29:20;;;;;;;10.85;5.20;;;;;;;21.11;67.51;102265.13;4983145;28;20053;-76
2021/08/13 08:31:48;;;;;;;8.40;4.40;;;;;;;21.37;67.36;102269.16;4986824;28;20124;-77
2021/08/13 08:34:15;;;;;;;8.85;4.18;;;;;;;21.92;66.17;102278.75;4979874;28;20096;-78
2021/08/13 08:36:45;;;;;;;8.95;4.47;;;;;;;21.73;64.87;102268.06;4981029;28;20109;-78
2021/08/13 08:39:13;;;;;;;9.20;5.43;;;;;;;21.75;64.91;102268.84;4982925;28;20447;-78
2021/08/13 08:41:44;;;;;;;9.00;4.53;;;;;;;22.06;64.10;102259.81;4984008;28;20386;-78
2021/08/13 08:44:12;;;;;;;12.38;4.75;;;;;;;23.02;62.10;102265.88;4979046;28;20062;-78
2021/08/13 08:46:40;;;;;;;11.05;4.25;;;;;;;23.30;62.02;102272.31;4980735;28;20070;-77
2021/08/13 08:49:10;;;;;;;10.50;4.45;;;;;;;22.85;61.69;102283.25;4982935;28;20047;-78
2021/08/13 08:51:40;;;;;;;10.27;3.90;;;;;;;22.36;62.12;102278.03;4980355;28;20326;-78
2021/08/13 08:54:10;;;;;;;11.80;4.70;;;;;;;22.65;62.45;102286.31;4980618;28;20062;-78
2021/08/13 08:56:39;;;;;;;8.75;4.03;;;;;;;22.41;62.22;102289.53;4984645;28;20173;-78
2021/08/13 08:59:07;;;;;;;10.38;4.53;;;;;;;22.69;62.48;102288.72;4981116;28;20349;-78
2021/08/13 09:01:35;;;;;;;10.93;4.65;;;;;;;22.48;62.69;102290.91;4979350;28;20129;-78
2021/08/13 09:04:04;;;;;;;9.18;3.80;;;;;;;22.22;62.56;102302.41;4980252;28;21571;-77
2021/08/13 09:06:32;;;;;;;8.73;3.80;;;;;;;21.77;61.83;102305.81;4983969;28;20439;-78
2021/08/13 09:09:00;;;;;;;8.18;3.33;;;;;;;22.40;61.52;102304.06;4978850;28;20125;-78
2021/08/13 09:11:29;;;;;;;9.18;3.50;;;;;;;22.67;59.20;102306.97;4981954;28;20128;-78
2021/08/13 09:14:01;;;;;;;11.18;3.72;;;;;;;22.58;59.09;102307.56;4983419;28;20101;-78
2021/08/13 09:16:29;;;;;;;9.23;3.70;;;;;;;22.97;58.64;102308.81;4980122;28;20065;-77
2021/08/13 09:18:59;;;;;;;8.23;3.80;;;;;;;22.97;58.20;102292.50;4980395;28;20066;-76
2021/08/13 09:21:28;;;;;;;11.63;3.88;;;;;;;22.26;59.04;102304.00;4981432;28;20090;-77
2021/08/13 09:23:59;;;;;;;11.93;3.83;;;;;;;21.75;60.48;102299.59;4982131;28;20062;-77
2021/08/13 09:26:29;;;;;;;9.48;3.70;;;;;;;22.44;58.92;102296.59;4982031;28;20062;-77
2021/08/13 09:28:58;;;;;;;8.40;3.70;;;;;;;22.40;56.98;102301.34;4981225;28;20113;-77
2021/08/13 09:31:28;;;;;;;8.27;3.30;;;;;;;22.69;55.46;102309.63;4981712;28;20574;-78
2021/08/13 09:33:57;;;;;;;9.00;3.25;;;;;;;22.90;54.52;102307.44;4978730;28;20062;-78
2021/08/13 09:36:26;;;;;;;12.48;3.90;;;;;;;22.68;54.01;102314.19;4979939;28;20093;-76
2021/08/13 09:39:04;;;;;;;7.05;2.72;;;;;;;22.33;55.98;102321.72;4980302;28;20500;-77
2021/08/13 09:41:45;;;;;;;10.30;3.20;;;;;;;22.14;56.18;102332.75;4980032;28;20164;-77
2021/08/13 09:44:13;;;;;;;11.93;3.53;;;;;;;22.48;55.96;102328.09;4981382;28;20066;-76
2021/08/13 09:46:56;;;;;;;8.75;3.78;;;;;;;22.84;55.44;102327.72;4980359;28;20074;-76
2021/08/13 09:49:24;;;;;;;9.00;3.47;;;;;;;23.37;54.67;102330.88;4980651;28;20072;-77
2021/08/13 09:51:51;;;;;;;14.00;3.83;;;;;;;23.43;54.54;102333.22;4980928;28;20117;-78
2021/08/13 09:54:26;;;;;;;9.93;3.75;;;;;;;22.86;51.71;102347.56;4980198;28;20074;-78
2021/08/13 09:57:07;;;;;;;11.35;3.40;;;;;;;23.15;51.04;102341.34;4979188;28;20066;-76
2021/08/13 09:59:34;;;;;;;10.55;3.50;;;;;;;22.95;52.25;102343.41;4980169;28;20066;-78
2021/08/13 10:02:10;;;;;;;12.02;3.38;;;;;;;23.39;50.56;102356.16;4980378;28;20148;-76
2021/08/13 10:04:38;;;;;;;12.13;4.00;;;;;;;23.69;51.29;102350.59;4978844;28;20359;-77
2021/08/13 10:07:06;;;;;;;11.70;3.53;;;;;;;24.02;50.58;102337.66;4980003;28;20386;-77
2021/08/13 10:09:34;;;;;;;9.43;3.17;;;;;;;23.61;51.13;102352.06;4980200;28;20054;-77
2021/08/13 10:12:05;;;;;;;12.98;3.78;;;;;;;24.36;49.77;102346.31;4980319;28;20096;-77
2021/08/13 10:14:35;;;;;;;8.98;3.17;;;;;;;24.49;50.12;102341.81;4981376;28;20054;-77
2021/08/13 10:17:11;;;;;;;11.52;3.05;;;;;;;24.32;49.88;102340.22;4980045;28;20066;-78
2021/08/13 10:19:40;;;;;;;9.82;3.35;;;;;;;23.72;50.61;102338.66;4981306;28;20070;-78
2021/08/13 10:22:09;;;;;;;10.50;3.42;;;;;;;23.84;50.55;102350.66;4979054;28;20058;-78
2021/08/13 10:24:38;;;;;;;14.88;3.47;;;;;;;23.75;49.78;102338.47;4981952;28;20069;-79
2021/08/13 10:27:08;;;;;;;11.13;3.20;;;;;;;23.49;50.92;102340.09;4980783;28;20154;-77
2021/08/13 10:29:35;;;;;;;12.93;3.58;;;;;;;23.82;51.19;102339.84;4981452;28;20069;-77
2021/08/13 10:32:04;;;;;;;9.27;3.15;;;;;;;23.62;51.31;102337.50;4980159;28;20465;-76
2021/08/13 10:34:32;;;;;;;9.73;3.05;;;;;;;23.86;50.84;102333.22;4977165;28;20120;-77
2021/08/13 10:37:01;;;;;;;11.40;3.13;;;;;;;23.65;51.75;102345.44;4980516;28;20111;-77
2021/08/13 10:39:32;;;;;;;13.73;3.50;;;;;;;23.63;51.62;102337.41;4978277;28;20070;-77
2021/08/13 10:42:04;;;;;;;10.75;3.20;;;;;;;23.66;51.73;102345.34;4982650;28;20062;-77
2021/08/13 10:44:36;;;;;;;14.23;3.22;;;;;;;23.09;50.72;102348.06;4980972;28;20071;-76
2021/08/13 10:47:11;;;;;;;7.50;3.00;;;;;;;23.26;51.74;102345.16;4981666;28;20074;-76
2021/08/13 10:49:44;;;;;;;12.13;3.65;;;;;;;23.10;50.54;102342.53;4980959;28;20113;-77
2021/08/13 10:52:12;;;;;;;11.68;3.22;;;;;;;23.08;51.01;102343.56;4976995;28;20587;-76
2021/08/13 10:54:42;;;;;;;12.20;3.20;;;;;;;23.12;51.95;102348.75;4980089;28;20070;-76
2021/08/13 10:57:10;;;;;;;14.68;4.18;;;;;;;23.02;51.37;102361.13;4978591;28;20066;-76
2021/08/13 10:59:56;;;;;;;10.50;3.38;;;;;;;23.04;51.27;102353.75;4980377;28;20136;-76
2021/08/13 11:02:25;;;;;;;10.98;3.10;;;;;;;22.80;51.84;102347.03;4980843;28;20050;-77
2021/08/13 11:04:53;;;;;;;11.50;3.33;;;;;;;22.68;51.52;102365.88;4980377;28;20428;-77
2021/08/13 11:07:59;;;;;;;11.27;3.75;;;;;;;22.24;52.14;102365.72;4979613;28;20112;-76
2021/08/13 11:10:58;;;;;;;10.30;3.15;;;;;;;22.99;52.24;102361.31;4978813;28;20062;-77
2021/08/13 11:13:26;;;;;;;10.57;3.70;;;;;;;22.83;51.13;102360.47;4979182;28;20445;-76
2021/08/13 11:15:55;;;;;;;12.02;3.13;;;;;;;22.59;52.12;102369.13;4979883;28;20069;-77
2021/08/13 11:18:28;;;;;;;12.73;3.42;;;;;;;22.31;51.98;102359.00;4983893;28;20120;-77
2021/08/13 11:20:56;;;;;;;8.73;3.38;;;;;;;22.73;52.72;102357.41;4984489;28;20172;-77
2021/08/13 11:23:24;;;;;;;11.80;2.95;;;;;;;22.64;52.18;102363.41;4984538;28;20050;-76
2021/08/13 11:25:53;;;;;;;12.02;3.30;;;;;;;22.43;51.75;102361.00;4983271;28;20548;-76